createdAt,value
2022-10-28T00:01:21.014Z,10.86
2022-10-28T00:03:51.901Z,10.96
2022-10-28T00:06:23.058Z,10.83
2022-10-28T00:08:51.515Z,10.92
2022-10-28T00:11:22.559Z,10.46
2022-10-28T00:13:53.883Z,11.22
2022-10-28T00:16:24.826Z,10.99
2022-10-28T00:18:54.159Z,11.48
2022-10-28T00:21:25.512Z,10.83
2022-10-28T00:23:53.548Z,10.77
2022-10-28T00:26:28.268Z,10.95
2022-10-28T00:28:58.930Z,11.02
2022-10-28T00:31:28.823Z,10.73
2022-10-28T00:33:58.791Z,10.63
2022-10-28T00:36:29.855Z,10.51
2022-10-28T00:38:59.194Z,10.55
2022-10-28T00:41:28.139Z,11.01
2022-10-28T00:44:21.103Z,10.99
2022-10-28T00:46:51.479Z,11.23
2022-10-28T00:49:31.627Z,10.68
2022-10-28T00:52:13.616Z,10.74
2022-10-28T00:54:44.251Z,11.23
2022-10-28T00:57:16.604Z,10.47
2022-10-28T00:59:50.871Z,10.75
2022-10-28T01:02:19.761Z,10.64
2022-10-28T01:04:48.574Z,10.50
2022-10-28T01:07:17.902Z,10.42
2022-10-28T01:09:46.322Z,10.60
2022-10-28T01:12:22.934Z,10.60
2022-10-28T01:15:03.089Z,10.26
2022-10-28T01:17:31.072Z,10.41
2022-10-28T01:20:20.831Z,9.94
2022-10-28T01:23:08.158Z,10.45
2022-10-28T01:25:51.009Z,10.96
2022-10-28T01:28:41.440Z,10.71
2022-10-28T01:31:18.528Z,11.40
2022-10-28T01:33:56.131Z,11.52
2022-10-28T01:36:54.142Z,12.42
2022-10-28T01:39:34.598Z,12.01
2022-10-28T01:42:39.524Z,12.14
2022-10-28T01:45:29.346Z,11.46
2022-10-28T01:48:26.535Z,10.97
2022-10-28T01:51:02.990Z,10.63
2022-10-28T01:53:36.109Z,10.74
2022-10-28T01:56:10.382Z,10.34
2022-10-28T01:58:40.494Z,10.41
2022-10-28T02:01:10.316Z,10.64
2022-10-28T02:03:38.551Z,10.68
2022-10-28T02:06:17.007Z,11.49
2022-10-28T02:09:06.231Z,12.51
2022-10-28T02:12:12.575Z,12.09
2022-10-28T02:14:52.629Z,12.37
2022-10-28T02:17:46.549Z,12.50
2022-10-28T02:20:40.970Z,13.18
2022-10-28T02:23:18.272Z,13.91
2022-10-28T02:26:09.366Z,14.26
2022-10-28T02:28:58.973Z,14.13
2022-10-28T02:31:35.631Z,13.84
2022-10-28T02:34:14.903Z,13.14
2022-10-28T02:36:48.056Z,13.95
2022-10-28T02:39:20.991Z,14.06
2022-10-28T02:41:53.300Z,14.09
2022-10-28T02:44:28.752Z,14.08
2022-10-28T02:47:04.229Z,13.79
2022-10-28T02:49:34.599Z,13.65
2022-10-28T02:52:06.406Z,13.44
2022-10-28T02:54:53.443Z,13.71
2022-10-28T02:57:27.719Z,14.05
2022-10-28T03:00:04.573Z,14.93
2022-10-28T03:02:32.766Z,14.10
2022-10-28T03:05:00.768Z,13.87
2022-10-28T03:07:29.221Z,13.47
2022-10-28T03:09:57.142Z,13.10
2022-10-28T03:12:25.124Z,12.84
2022-10-28T03:14:53.124Z,13.24
2022-10-28T03:17:20.975Z,13.09
2022-10-28T03:19:48.891Z,13.80
2022-10-28T03:22:16.848Z,13.24
2022-10-28T03:24:44.754Z,13.49
2022-10-28T03:27:12.698Z,13.50
2022-10-28T03:29:44.895Z,14.34
2022-10-28T03:32:14.189Z,14.61
2022-10-28T03:34:42.422Z,14.47
2022-10-28T03:37:10.820Z,14.92
2022-10-28T03:39:38.787Z,14.52
2022-10-28T03:42:06.682Z,15.20
2022-10-28T03:44:34.853Z,15.06
2022-10-28T03:47:02.747Z,15.56
2022-10-28T03:49:30.710Z,15.60
2022-10-28T03:51:58.675Z,16.06
2022-10-28T03:54:26.703Z,15.79
2022-10-28T03:56:54.854Z,15.13
2022-10-28T03:59:22.963Z,15.71
2022-10-28T04:01:51.110Z,16.63
2022-10-28T04:04:19.317Z,15.97
2022-10-28T04:06:47.219Z,15.97
2022-10-28T04:09:15.216Z,16.82
2022-10-28T04:11:43.151Z,17.40
2022-10-28T04:14:11.135Z,17.32
2022-10-28T04:16:39.071Z,17.04
2022-10-28T04:19:07.036Z,17.56
2022-10-28T04:21:35.039Z,17.39
2022-10-28T04:24:03.001Z,17.77
2022-10-28T04:26:31.988Z,17.61
2022-10-28T04:29:00.097Z,18.21
2022-10-28T04:31:28.121Z,19.29
2022-10-28T04:33:57.273Z,19.83
2022-10-28T04:36:25.369Z,21.87
2022-10-28T04:38:53.336Z,21.53
2022-10-28T04:41:21.355Z,24.34
2022-10-28T04:43:50.328Z,24.70
2022-10-28T04:46:18.350Z,23.66
2022-10-28T04:48:47.859Z,24.62
2022-10-28T04:51:15.839Z,28.36
2022-10-28T04:53:43.809Z,25.87
2022-10-28T04:56:11.795Z,24.92
2022-10-28T04:58:40.079Z,27.81
2022-10-28T05:01:10.332Z,26.41
2022-10-28T05:03:38.366Z,27.39
2022-10-28T05:06:07.385Z,26.80
2022-10-28T05:08:35.277Z,25.61
2022-10-28T05:11:03.253Z,24.69
2022-10-28T05:13:31.169Z,25.21
2022-10-28T05:15:59.095Z,26.55
2022-10-28T05:18:27.063Z,26.75
2022-10-28T05:20:55.348Z,25.50
2022-10-28T05:23:27.193Z,20.54
2022-10-28T05:25:58.569Z,19.83
2022-10-28T05:28:26.550Z,19.60
2022-10-28T05:30:54.498Z,19.22
2022-10-28T05:33:22.973Z,19.69
2022-10-28T05:35:51.568Z,19.61
2022-10-28T05:38:19.676Z,19.42
2022-10-28T05:40:47.556Z,19.81
2022-10-28T05:43:15.562Z,19.96
2022-10-28T05:45:43.558Z,19.88
2022-10-28T05:48:11.456Z,20.05
2022-10-28T05:50:39.430Z,20.08
2022-10-28T05:53:07.307Z,20.39
2022-10-28T05:55:35.420Z,21.45
2022-10-28T05:58:03.430Z,21.62
2022-10-28T06:00:33.132Z,21.37
2022-10-28T06:03:09.358Z,23.58
2022-10-28T06:05:38.589Z,24.34
2022-10-28T06:08:06.710Z,25.44
2022-10-28T06:10:34.732Z,24.41
2022-10-28T06:13:01.228Z,23.71
2022-10-28T06:15:29.245Z,23.49
2022-10-28T06:17:57.247Z,23.64
2022-10-28T06:20:25.345Z,23.87
2022-10-28T06:22:55.711Z,24.79
2022-10-28T06:25:25.140Z,24.85
2022-10-28T06:27:54.283Z,26.31
2022-10-28T06:30:25.315Z,28.10
2022-10-28T06:32:56.606Z,27.63
2022-10-28T06:35:24.736Z,25.79
2022-10-28T06:37:54.785Z,26.24
2022-10-28T06:40:24.980Z,26.14
2022-10-28T06:43:01.284Z,26.58
2022-10-28T06:45:31.289Z,25.47
2022-10-28T06:48:03.139Z,24.95
2022-10-28T06:50:33.110Z,25.28
2022-10-28T06:53:01.266Z,24.55
2022-10-28T06:55:30.297Z,24.45
2022-10-28T06:58:02.538Z,24.85
2022-10-28T07:03:07.543Z,26.29
2022-10-28T07:05:35.623Z,28.05
2022-10-28T07:08:03.769Z,26.15
2022-10-28T07:10:32.239Z,26.55
2022-10-28T07:13:00.115Z,26.17
2022-10-28T07:15:28.211Z,25.94
2022-10-28T07:17:57.814Z,24.83
2022-10-28T07:20:27.873Z,26.19
2022-10-28T07:23:00.888Z,25.93
2022-10-28T07:25:31.202Z,25.70
2022-10-28T07:28:00.042Z,25.90
2022-10-28T07:30:28.729Z,26.76
2022-10-28T07:33:00.878Z,34.85
2022-10-28T07:35:28.994Z,41.89
2022-10-28T07:37:58.301Z,49.82
2022-10-28T07:40:26.457Z,38.59
2022-10-28T07:42:54.706Z,28.61
2022-10-28T07:45:22.787Z,26.66
2022-10-28T07:47:50.800Z,25.11
2022-10-28T07:50:18.806Z,22.17
2022-10-28T07:52:47.368Z,21.58
2022-10-28T07:55:15.317Z,18.75
2022-10-28T07:57:43.427Z,19.09
2022-10-28T08:00:11.672Z,18.72
2022-10-28T08:02:40.288Z,19.81
2022-10-28T08:05:08.763Z,22.16
2022-10-28T08:07:38.636Z,21.39
2022-10-28T08:10:07.351Z,33.02
2022-10-28T08:12:35.486Z,36.57
2022-10-28T08:15:03.892Z,35.80
2022-10-28T08:17:31.896Z,31.26
2022-10-28T08:19:59.820Z,25.12
2022-10-28T08:22:27.880Z,21.89
2022-10-28T08:24:55.797Z,20.60
2022-10-28T08:27:23.750Z,18.90
2022-10-28T08:29:53.358Z,18.36
2022-10-28T08:32:21.276Z,18.73
2022-10-28T08:34:49.153Z,18.99
2022-10-28T08:37:17.248Z,19.61
2022-10-28T08:39:45.193Z,21.14
2022-10-28T08:42:50.126Z,20.40
2022-10-28T08:45:49.057Z,20.86
2022-10-28T08:48:31.569Z,22.84
2022-10-28T08:51:09.773Z,22.46
2022-10-28T08:53:53.868Z,26.65
2022-10-28T08:56:47.608Z,38.67
2022-10-28T08:59:21.803Z,38.45
2022-10-28T09:01:58.084Z,35.27
2022-10-28T09:04:39.316Z,34.49
2022-10-28T09:07:24.736Z,40.89
2022-10-28T09:09:53.842Z,45.13
2022-10-28T09:12:31.904Z,45.47
2022-10-28T09:15:18.774Z,47.71
2022-10-28T09:17:57.057Z,48.83
2022-10-28T09:20:30.703Z,47.49
2022-10-28T09:23:04.442Z,46.78
2022-10-28T09:26:01.649Z,47.23
2022-10-28T09:28:51.311Z,48.36
2022-10-28T09:31:25.957Z,48.82
2022-10-28T09:34:04.130Z,50.07
2022-10-28T09:36:43.754Z,53.81
2022-10-28T09:39:43.664Z,51.11
2022-10-28T09:42:21.179Z,52.24
2022-10-28T09:45:00.596Z,54.57
2022-10-28T09:47:39.882Z,54.60
2022-10-28T09:50:16.650Z,51.31
2022-10-28T09:53:03.490Z,48.62
2022-10-28T09:55:33.043Z,49.94
2022-10-28T09:58:03.481Z,51.08
2022-10-28T10:00:32.058Z,51.62
2022-10-28T10:03:00.146Z,52.68
2022-10-28T10:05:30.483Z,52.16
2022-10-28T10:08:04.366Z,52.90
2022-10-28T10:10:44.865Z,53.58
2022-10-28T10:13:16.400Z,53.28
2022-10-28T10:16:00.312Z,54.69
2022-10-28T10:18:35.456Z,62.43
2022-10-28T10:21:03.908Z,61.54
2022-10-28T10:23:34.909Z,54.24
2022-10-28T10:26:09.550Z,51.81
2022-10-28T10:28:51.112Z,74.78
2022-10-28T10:31:21.732Z,100.00
2022-10-28T10:33:53.117Z,70.35
2022-10-28T10:36:28.251Z,61.69
2022-10-28T10:38:58.643Z,64.90
2022-10-28T10:41:44.052Z,66.53
2022-10-28T10:44:20.989Z,55.89
2022-10-28T10:47:05.869Z,54.71
2022-10-28T10:49:35.847Z,55.81
2022-10-28T10:52:10.301Z,64.53
2022-10-28T10:54:38.624Z,64.11
2022-10-28T10:57:16.014Z,60.91
2022-10-28T10:59:49.845Z,62.43
2022-10-28T11:02:31.781Z,63.01
2022-10-28T11:05:03.927Z,65.82
2022-10-28T11:07:33.070Z,61.54
2022-10-28T11:10:02.277Z,60.02
2022-10-28T11:12:36.841Z,57.91
2022-10-28T11:15:16.750Z,53.59
2022-10-28T11:18:21.620Z,50.12
2022-10-28T11:21:04.739Z,49.49
2022-10-28T11:23:51.706Z,46.99
2022-10-28T11:26:22.816Z,48.71
2022-10-28T11:28:58.179Z,47.59
2022-10-28T11:31:59.477Z,50.07
2022-10-28T11:34:27.391Z,48.15
2022-10-28T11:37:09.482Z,48.06
2022-10-28T11:39:41.689Z,48.54
2022-10-28T11:42:34.646Z,46.06
2022-10-28T11:45:21.493Z,43.72
2022-10-28T11:48:08.411Z,44.16
2022-10-28T11:51:10.952Z,42.50
2022-10-28T11:54:04.398Z,42.64
2022-10-28T11:56:48.286Z,43.27
2022-10-28T11:59:34.832Z,41.59
2022-10-28T12:02:37.829Z,40.79
2022-10-28T12:05:24.397Z,41.84
2022-10-28T12:08:10.528Z,42.11
2022-10-28T12:11:18.861Z,40.40
2022-10-28T12:14:09.879Z,41.80
2022-10-28T12:16:49.435Z,43.31
2022-10-28T12:19:20.732Z,40.42
2022-10-28T12:21:59.669Z,42.07
2022-10-28T12:24:30.569Z,40.71
2022-10-28T12:27:02.864Z,40.22
2022-10-28T12:29:37.370Z,41.02
2022-10-28T12:32:09.519Z,41.39
2022-10-28T12:34:43.689Z,41.70
2022-10-28T12:37:18.685Z,41.10
2022-10-28T12:40:14.420Z,41.59
2022-10-28T12:42:48.261Z,42.03
2022-10-28T12:45:18.800Z,42.69
2022-10-28T12:48:02.110Z,43.64
2022-10-28T12:50:45.026Z,42.84
2022-10-28T12:53:26.669Z,43.29
2022-10-28T12:56:00.878Z,42.62
2022-10-28T12:58:51.070Z,41.36
2022-10-28T13:01:22.611Z,41.93
2022-10-28T13:03:50.829Z,40.79
2022-10-28T13:07:01.262Z,39.38
2022-10-28T13:09:44.495Z,38.03
2022-10-28T13:12:12.665Z,37.38
2022-10-28T13:15:14.864Z,36.21
2022-10-28T13:18:19.523Z,35.85
2022-10-28T13:20:47.635Z,37.09
2022-10-28T13:23:33.670Z,37.61
2022-10-28T13:26:37.733Z,38.62
2022-10-28T13:29:07.945Z,38.85
2022-10-28T13:31:45.586Z,38.79
2022-10-28T13:34:16.337Z,37.42
2022-10-28T13:36:47.805Z,36.78
2022-10-28T13:39:25.986Z,35.09
2022-10-28T13:42:12.721Z,36.14
2022-10-28T13:44:53.415Z,36.53
2022-10-28T13:47:28.873Z,35.48
2022-10-28T13:50:05.959Z,34.13
2022-10-28T13:52:43.888Z,33.48
2022-10-28T13:55:14.689Z,34.02
2022-10-28T13:57:46.739Z,35.16
2022-10-28T14:00:17.520Z,40.18
2022-10-28T14:02:50.103Z,39.52
2022-10-28T14:05:21.130Z,33.02
2022-10-28T14:08:01.695Z,32.31
2022-10-28T14:10:32.645Z,34.14
2022-10-28T14:13:05.654Z,30.66
2022-10-28T14:15:36.073Z,29.60
2022-10-28T14:21:06.772Z,32.27
2022-10-28T14:23:36.509Z,34.67
2022-10-28T14:26:05.809Z,32.72
2022-10-28T14:28:33.665Z,28.48
2022-10-28T14:31:14.507Z,26.96
2022-10-28T14:33:42.947Z,31.27
2022-10-28T14:36:17.587Z,35.73
2022-10-28T14:39:04.451Z,42.78
2022-10-28T14:41:50.490Z,42.76
2022-10-28T14:44:36.755Z,40.48
2022-10-28T14:47:36.605Z,37.18
2022-10-28T14:50:15.714Z,35.26
2022-10-28T14:52:45.377Z,30.87
2022-10-28T14:55:39.641Z,28.70
2022-10-28T14:58:27.897Z,27.19
2022-10-28T15:01:17.683Z,28.20
2022-10-28T15:04:12.020Z,26.64
2022-10-28T15:06:46.811Z,26.06
2022-10-28T15:09:21.163Z,25.05
2022-10-28T15:12:00.570Z,23.62
2022-10-28T15:14:32.909Z,24.36
2022-10-28T15:17:12.164Z,22.67
2022-10-28T15:19:40.394Z,22.87
2022-10-28T15:22:16.740Z,22.99
2022-10-28T15:24:57.583Z,22.82
2022-10-28T15:27:34.768Z,22.90
2022-10-28T15:30:05.064Z,22.27
2022-10-28T15:32:35.876Z,22.13
2022-10-28T15:35:35.532Z,22.31
2022-10-28T15:38:23.634Z,22.99
2022-10-28T15:40:51.993Z,22.73
2022-10-28T15:43:32.589Z,23.56
2022-10-28T15:46:15.650Z,22.93
2022-10-28T15:48:43.805Z,23.07
2022-10-28T15:51:17.572Z,22.70
2022-10-28T15:53:47.357Z,22.55
2022-10-28T15:56:15.301Z,22.16
2022-10-28T15:59:00.606Z,22.35
2022-10-28T16:01:34.923Z,21.74
2022-10-28T16:04:03.068Z,21.42
2022-10-28T16:06:37.092Z,21.60
2022-10-28T16:09:15.377Z,21.23
2022-10-28T16:11:49.272Z,20.59
2022-10-28T16:14:26.315Z,20.03
2022-10-28T16:16:54.617Z,19.42
2022-10-28T16:19:33.093Z,20.19
2022-10-28T16:22:01.569Z,20.37
2022-10-28T16:24:29.529Z,20.20
2022-10-28T16:27:14.714Z,20.63
2022-10-28T16:29:42.762Z,20.95
2022-10-28T16:32:12.934Z,21.01
2022-10-28T16:34:41.791Z,19.78
2022-10-28T16:37:24.645Z,19.59
2022-10-28T16:39:53.472Z,19.24
2022-10-28T16:42:22.511Z,18.93
2022-10-28T16:44:51.767Z,19.04
2022-10-28T16:47:21.854Z,18.16
2022-10-28T16:49:54.141Z,19.59
2022-10-28T16:52:30.184Z,19.30
2022-10-28T16:54:58.389Z,18.98
2022-10-28T16:57:26.969Z,19.16
2022-10-28T16:59:55.167Z,18.30
2022-10-28T17:02:30.611Z,18.58
2022-10-28T17:04:59.894Z,19.51
2022-10-28T17:07:29.085Z,25.30
2022-10-28T17:09:57.199Z,30.68
2022-10-28T17:12:26.700Z,24.58
2022-10-28T17:14:55.776Z,23.01
2022-10-28T17:17:23.932Z,23.19
2022-10-28T17:19:52.026Z,23.24
2022-10-28T17:22:19.987Z,22.19
2022-10-28T17:24:48.489Z,22.41
2022-10-28T17:27:16.510Z,21.70
2022-10-28T17:29:44.870Z,21.55
2022-10-28T17:32:14.778Z,22.60
2022-10-28T17:34:42.839Z,22.92
2022-10-28T17:37:10.777Z,23.97
2022-10-28T17:39:38.749Z,22.21
2022-10-28T17:42:06.767Z,23.19
2022-10-28T17:44:35.835Z,24.17
2022-10-28T17:47:03.776Z,24.55
2022-10-28T17:49:34.367Z,26.60
2022-10-28T17:52:02.306Z,25.45
2022-10-28T17:54:30.559Z,25.61
2022-10-28T17:56:59.683Z,27.06
2022-10-28T17:59:27.775Z,25.90
2022-10-28T18:01:55.866Z,27.58
2022-10-28T18:04:26.703Z,28.98
2022-10-28T18:06:56.338Z,26.68
2022-10-28T18:09:24.294Z,25.29
2022-10-28T18:11:52.342Z,26.39
2022-10-28T18:14:20.423Z,25.29
2022-10-28T18:16:50.719Z,25.14
2022-10-28T18:19:18.988Z,26.84
2022-10-28T18:21:47.158Z,26.25
2022-10-28T18:24:15.393Z,29.69
2022-10-28T18:26:43.365Z,34.12
2022-10-28T18:29:13.124Z,36.04
2022-10-28T18:31:44.822Z,37.17
2022-10-28T18:34:12.870Z,37.73
2022-10-28T18:36:41.930Z,38.13
2022-10-28T18:39:09.952Z,38.41
2022-10-28T18:41:41.904Z,37.72
2022-10-28T18:44:13.126Z,38.44
2022-10-28T18:46:41.272Z,37.03
2022-10-28T18:49:09.262Z,39.12
2022-10-28T18:51:37.597Z,37.76
2022-10-28T18:54:05.599Z,38.23
2022-10-28T18:56:34.314Z,38.96
2022-10-28T18:59:04.292Z,39.07
2022-10-28T19:01:33.872Z,38.20
2022-10-28T19:04:05.228Z,35.41
2022-10-28T19:06:33.980Z,34.81
2022-10-28T19:09:04.580Z,34.19
2022-10-28T19:11:34.174Z,34.16
2022-10-28T19:14:05.120Z,34.66
2022-10-28T19:16:34.115Z,34.24
2022-10-28T19:19:04.677Z,29.16
2022-10-28T19:21:33.835Z,29.56
2022-10-28T19:24:02.745Z,28.63
2022-10-28T19:26:32.202Z,25.49
2022-10-28T19:29:00.166Z,26.64
2022-10-28T19:31:28.576Z,26.62
2022-10-28T19:33:57.509Z,24.99
2022-10-28T19:36:28.738Z,24.56
2022-10-28T19:38:58.164Z,24.40
2022-10-28T19:41:28.635Z,25.81
2022-10-28T19:44:01.896Z,35.99
2022-10-28T19:46:34.950Z,28.62
2022-10-28T19:49:05.776Z,26.35
2022-10-28T19:51:37.049Z,25.58
2022-10-28T19:54:09.392Z,24.49
2022-10-28T19:56:38.893Z,25.97
2022-10-28T19:59:07.254Z,26.86
2022-10-28T20:01:38.007Z,26.50
2022-10-28T20:04:08.265Z,26.92
2022-10-28T20:06:38.162Z,26.80
2022-10-28T20:09:06.905Z,27.36
2022-10-28T20:11:38.005Z,26.73
2022-10-28T20:14:09.513Z,28.85
2022-10-28T20:16:39.322Z,27.42
2022-10-28T20:19:07.235Z,27.59
2022-10-28T20:21:37.774Z,26.59
2022-10-28T20:24:07.158Z,25.69
2022-10-28T20:26:36.929Z,24.52
2022-10-28T20:29:06.926Z,25.88
2022-10-28T20:31:35.764Z,25.48
2022-10-28T20:34:04.293Z,26.07
2022-10-28T20:36:38.798Z,25.03
2022-10-28T20:39:12.647Z,26.40
2022-10-28T20:41:42.846Z,24.44
2022-10-28T20:44:11.957Z,23.53
2022-10-28T20:46:41.960Z,24.77
2022-10-28T20:49:10.602Z,24.89
2022-10-28T20:51:38.847Z,23.85
2022-10-28T20:54:06.900Z,23.97
2022-10-28T20:56:37.089Z,23.14
2022-10-28T20:59:06.089Z,22.50
2022-10-28T21:01:39.386Z,23.27
2022-10-28T21:04:10.122Z,22.70
2022-10-28T21:06:38.851Z,23.87
2022-10-28T21:09:07.946Z,24.20
2022-10-28T21:11:35.951Z,24.55
2022-10-28T21:14:04.616Z,23.49
2022-10-28T21:16:32.632Z,23.88
2022-10-28T21:19:01.954Z,23.79
2022-10-28T21:21:31.798Z,23.65
2022-10-28T21:24:00.413Z,24.25
2022-10-28T21:26:28.388Z,24.08
2022-10-28T21:28:56.555Z,24.63
2022-10-28T21:31:25.270Z,25.19
2022-10-28T21:33:53.677Z,25.22
2022-10-28T21:36:24.788Z,25.33
2022-10-28T21:38:54.604Z,25.75
2022-10-28T21:41:24.855Z,24.22
2022-10-28T21:43:54.330Z,24.17
2022-10-28T21:46:23.558Z,24.06
2022-10-28T21:48:52.784Z,23.12
2022-10-28T21:51:20.692Z,23.95
2022-10-28T21:53:48.589Z,24.75
2022-10-28T21:56:19.542Z,24.97
2022-10-28T21:58:50.018Z,25.31
2022-10-28T22:01:21.405Z,27.58
2022-10-28T22:03:51.237Z,28.36
2022-10-28T22:06:19.272Z,29.80
2022-10-28T22:08:47.627Z,33.50
2022-10-28T22:11:21.109Z,33.90
2022-10-28T22:13:58.778Z,38.18
2022-10-28T22:16:28.205Z,36.32
2022-10-28T22:18:58.415Z,30.09
2022-10-28T22:21:28.534Z,28.28
2022-10-28T22:23:56.475Z,27.74
2022-10-28T22:26:28.050Z,27.34
2022-10-28T22:28:56.619Z,24.10
2022-10-28T22:31:27.968Z,20.19
2022-10-28T22:33:57.044Z,19.29
2022-10-28T22:36:28.689Z,18.12
2022-10-28T22:38:56.817Z,17.62
2022-10-28T22:41:25.636Z,18.32
2022-10-28T22:43:56.026Z,17.87
2022-10-28T22:46:26.853Z,17.94
2022-10-28T22:48:55.560Z,17.31
2022-10-28T22:51:23.624Z,17.82
2022-10-28T22:53:51.797Z,18.76
2022-10-28T22:56:22.258Z,18.22
2022-10-28T22:58:55.666Z,18.04
2022-10-28T23:01:26.325Z,20.62
2022-10-28T23:03:55.313Z,21.37
2022-10-28T23:06:26.180Z,22.32
2022-10-28T23:08:54.729Z,21.71
2022-10-28T23:11:23.879Z,21.79
2022-10-28T23:13:55.789Z,24.45
2022-10-28T23:16:24.428Z,28.33
2022-10-28T23:18:53.269Z,31.29
2022-10-28T23:21:24.793Z,32.22
2022-10-28T23:23:58.445Z,31.67
2022-10-28T23:26:28.661Z,31.04
2022-10-28T23:28:59.086Z,31.39
2022-10-28T23:31:28.385Z,32.03
2022-10-28T23:33:56.532Z,34.38
2022-10-28T23:36:24.866Z,36.79
2022-10-28T23:38:53.932Z,36.90
2022-10-28T23:41:22.009Z,37.02
2022-10-28T23:43:50.806Z,38.15
2022-10-28T23:46:20.488Z,39.89
2022-10-28T23:48:48.872Z,43.21
2022-10-28T23:51:16.811Z,46.91
2022-10-28T23:53:45.553Z,48.31
2022-10-28T23:56:13.426Z,53.38
2022-10-28T23:58:41.839Z,57.54
